• Join FlightAware (Why Join?)
  • Login
  • US Flag 
11:23PM EDT


 

Airport Tracker/Info


-or-


 

Live Flight TrackerFlight Track Log ✈ SWA1377 ✈ 17-Apr-2013 ✈ KMDW - KBUF

Flight Track Log - Related Links

Times and Time Zones

All times are in EDT time to prevent confusion due to time zone crossing. See the SWA1377 flight status page for this flight to view local times or setup timezone preferences in your user account.

Time Position Orientation Groundspeed Altitude Reporting Facility
EDT Latitude Longitude Course Direction KTS MPH feet Rate Location/Type
10:28AM 41.8167 -87.7333 90° East 183 211 3,000  Level Chicago TRACON
10:29AM 41.8167 -87.6500 90° East 257 296 4,700 1,440 Climbing Chicago TRACON
10:29AM 41.8214 -87.6169 79° East 239 275 4,900 180 Climbing Chicago Center
10:30AM 41.8300 -87.5169 83° East 257 296 5,000 420 Climbing Chicago Center
10:31AM 41.8311 -87.4183 89° East 263 303 5,800 960 Climbing Chicago Center
10:32AM 41.8322 -87.3194 89° East 266 306 7,000 2,340 Climbing Chicago Center
10:33AM 41.7500 -86.8954 90° East  Level FlightAware Approximate
10:33AM 41.8386 -87.2106 85° East 291 335 10,600  Level Chicago Center
10:34AM 41.8367 -87.0917 91° East 324 373 14,400 2,520 Climbing Chicago Center
10:35AM 41.8306 -86.9369 93° East 346 398 15,800 1,260 Climbing Chicago Center
10:36AM 41.8311 -86.8039 90° East 359 413 17,000 1,380 Climbing Chicago Center
10:37AM 41.8383 -86.6775 86° East 382 440 18,700 1,260 Climbing Chicago Center
10:38AM 41.8303 -86.5331 94° East 390 449 19,600 1,140 Climbing Chicago Center
10:39AM 41.8250 -86.3581 92° East 392 451 21,100 1,620 Climbing Chicago Center
10:40AM 41.8203 -86.2044 92° East 410 472 23,000 1,260 Climbing Chicago Center
10:41AM 41.8361 -86.0464 82° East 424 488 23,700 1,260 Climbing Chicago Center
10:42AM 41.8611 -85.8806 79° East 441 507 25,600 1,140 Climbing Chicago Center
10:43AM 41.8844 -85.7186 79° East 449 517 26,100 1,260 Climbing Chicago Center
10:44AM 41.9089 -85.5511 79° East 452 520 28,300 2,580 Climbing Chicago Center
10:45AM 41.9372 -85.3656 78° East 475 547 31,300 2,940 Climbing Cleveland Center
10:46AM 41.9547 -85.1964 82° East 481 554 34,200 1,800 Climbing Cleveland Center
10:47AM 41.9531 -85.0258 91° East 462 532 35,000 1,380 Climbing Cleveland Center
10:48AM 41.9536 -84.8500 90° East 462 532 37,000 960 Climbing Cleveland Center
10:49AM 41.9517 -84.6739 91° East 462 532 37,000  Level Cleveland Center
10:50AM 41.9700 -84.5019 82° East 462 532 37,000  Level Cleveland Center
10:51AM 41.9944 -84.3328 79° East 462 532 37,000  Level Cleveland Center
10:52AM 42.0078 -84.1828 83° East 462 532 37,000  Level Cleveland Center
10:53AM 42.0297 -84.0078 80° East 467 537 37,000  Level Cleveland Center
10:54AM 42.0472 -83.8353 82° East 467 537 37,000 -60 Level Cleveland Center
10:55AM 42.0689 -83.6603 80° East 467 537 36,900 -660 Descending Cleveland Center
10:56AM 42.0906 -83.4681 81° East 467 537 35,700 -1,080 Descending Cleveland Center
10:57AM 42.1114 -83.2956 81° East 467 537 34,800 -960 Descending Cleveland Center
10:58AM 42.1300 -83.1169 82° East 472 543 33,800 -900 Descending Cleveland Center
10:59AM 42.1503 -82.9442 81° East 472 543 33,000 -420 Descending Cleveland Center
11:00AM 42.1664 -82.7656 83° East 477 549 33,000 -300 Level Cleveland Center
11:01AM 42.1864 -82.5897 81° East 477 549 32,400 -840 Descending Cleveland Center
11:02AM 42.2058 -82.4136 81° East 477 549 31,400 -720 Descending Cleveland Center
11:03AM 42.2253 -82.2319 82° East 482 555 31,000 -420 Descending Cleveland Center
11:04AM 42.2400 -82.0781 83° East 475 547 30,600 -840 Descending Cleveland Center
11:05AM 42.2633 -81.8794 81° East 475 547 29,400 -1,680 Descending Cleveland Center
11:06AM 42.2797 -81.6972 83° East 483 556 27,300 -2,100 Descending Cleveland Center
11:07AM 42.2981 -81.5153 82° East 483 556 25,200 -1,200 Descending Cleveland Center
11:08AM 42.3139 -81.3328 83° East 483 556 25,000 -120 Descending Cleveland Center
11:09AM 42.3294 -81.1561 83° East 476 548 25,000  Level Cleveland Center
11:10AM 42.3469 -80.9822 82° East 471 542 25,000  Level Cleveland Center
11:11AM 42.3619 -80.8136 83° East 460 529 25,000  Level Cleveland Center
11:12AM 42.3769 -80.6394 83° East 465 535 25,000  Level Cleveland Center
11:13AM 42.3933 -80.4792 82° East 465 535 25,000  Level Cleveland Center
11:14AM 42.4056 -80.3047 85° East 460 529 25,000 -660 Level Cleveland Center
11:15AM 42.4219 -80.1331 83° East 467 537 23,700 -1,800 Descending Cleveland Center
11:16AM 42.4336 -79.9700 84° East 447 514 21,500 -2,280 Descending Cleveland Center
11:17AM 42.4492 -79.8067 83° East 442 509 19,200 -2,100 Descending Cleveland Center
11:18AM 42.4606 -79.6517 84° East 427 491 17,400 -2,160 Descending Cleveland Center
11:19AM 42.4761 -79.5078 82° East 406 467 14,900 -2,220 Descending Cleveland Center
11:20AM 42.5019 -79.3750 75° East 379 436 13,000 -2,040 Descending Cleveland Center
11:21AM 42.5525 -79.2528 61° Northeast 346 398 10,900 -2,100 Descending Cleveland Center
11:22AM 42.6247 -79.1892 33° Northeast 329 379 8,800 -2,100 Descending Cleveland Center
11:23AM 42.6842 -79.1003 48° Northeast 296 341 6,700 -1,800 Descending Cleveland Center
11:24AM 42.7372 -79.0256 46° Northeast 275 316 5,300 -1,200 Descending Cleveland Center
11:25AM 42.7822 -78.9539 49° Northeast 264 304 4,300 -780 Descending Cleveland Center
11:26AM 42.8189 -78.8992 48° Northeast 233 268 3,800 -780 Descending Cleveland Center
11:27AM 42.8617 -78.8356 47° Northeast 199 229 2,800 -1,020 Descending Cleveland Center
11:28AM 42.9000 -78.7833 45° Northeast 151 174 1,800 -900 Descending Buffalo TRACON
11:29AM 42.9167 -78.7500 56° Northeast 119 137 1,100 -720 Descending Buffalo TRACON
11:31AM 42.9333 -78.7167 48° Northeast  Level FlightAware Approximate
11:38AM 42.9404 -78.7306 48° Northeast  Level Estimated